Columbia — WYR2092 — position and weather

sailwx.info

Track history (hours):
 
Tides and Currents Weather Stations Pressure Air Temp Water Temp Dewpoint Dewpoint Depression Visibility Wind Speed Wind Dir Waves Ship Positions

Columbia

Owner: ALASKA, STATE OF, ANCHORAGE, AK. More information available from US FCC via Universal Licensing System and Coast Guard Vessel Documentation Center.

Last reported at 2018-May-26 12:20 UTC. Time now 2018-May-26 13:51 UTC.
Position N 50°23' W 125°47'.

Type: Ship. MMSI: 367144000.

Date/timePositionNaut miles runAvg speedWind from/ knotsBaromVisibWave heightAir tempDewpointWater temp
2018-May-26 12:20N 50°23' W 125°47'1016.1
2018-May-26 11:44N 50°21' W 125°32'416.6
2018-May-26 11:31N 50°20' W 125°26'917.2
2018-May-26 11:00N 50°12' W 125°22'815.7
2018-May-26 10:30N 50°05' W 125°16'611.7
2018-May-26 10:00N 49°60' W 125°12'815.1
2018-May-26 09:30N 49°54' W 125°04'815.9
2018-May-26 09:00N 49°49' W 124°56'815.9
2018-May-26 08:30N 49°43' W 124°47'815.9
2018-May-26 08:00N 49°38' W 124°38'815.9
2018-May-26 07:30N 49°32' W 124°29'815.9
2018-May-26 07:00N 49°27' W 124°20'815.7
2018-May-26 06:30N 49°24' W 124°09'1915.6
2018-May-26 05:18N 49°17' W 123°42'515.9
2018-May-26 04:58N 49°13' W 123°36'815.9
2018-May-26 04:27N 49°08' W 123°27'716.0
2018-May-26 04:00N 49°03' W 123°19'816.4
2018-May-26 03:30N 48°57' W 123°10'916.4
2018-May-26 02:59N 48°52' W 122°60'816.4
2018-May-26 02:30N 48°47' W 122°50'715.2
2018-May-26 02:01N 48°41' W 122°43'612.7
2018-May-26 01:31N 48°39' W 122°34'5 0.6
2018-May-25 17:40N 48°43' W 122°31'0 0.0
2018-May-25 17:16N 48°43' W 122°31'0 0.0
2018-May-25 16:46N 48°43' W 122°31'0 0.0
2018-May-25 16:28N 48°43' W 122°31'0 0.0
2018-May-25 15:58N 48°43' W 122°31'0 0.0
2018-May-25 15:27N 48°43' W 122°31'0 0.0
2018-May-25 14:56N 48°43' W 122°31'0 1.0
2018-May-25 14:28N 48°44' W 122°31'613.3
2018-May-25 14:00N 48°38' W 122°35'714.1
2018-May-25 13:30N 48°41' W 122°44'714.9
2018-May-25 13:00N 48°47' W 122°52'816.1
2018-May-25 12:29N 48°51' W 123°03'816.3
2018-May-25 12:00N 48°56' W 123°12'816.3
2018-May-25 11:30N 49°02' W 123°21'916.3
2018-May-25 10:57N 49°09' W 123°30'816.3
2018-May-25 10:29N 49°14' W 123°38'816.3
2018-May-25 10:00N 49°19' W 123°47'815.8
2018-May-25 09:30N 49°23' W 123°58'816.3
2018-May-25 09:00N 49°24' W 124°10'816.0
2018-May-25 08:29N 49°27' W 124°22'816.2
2018-May-25 08:00N 49°33' W 124°31'816.2
2018-May-25 07:30N 49°38' W 124°40'816.3
2018-May-25 07:00N 49°44' W 124°49'816.3
2018-May-25 06:30N 49°50' W 124°57'816.1
2018-May-25 06:00N 49°56' W 125°06'612.8
2018-May-25 05:30N 50°01' W 125°13'815.5
2018-May-25 05:01N 50°07' W 125°19'815.7
2018-May-25 04:30N 50°15' W 125°23'1712.5
2018-May-25 03:09N 50°22' W 125°47'2614.6
2018-May-25 01:23N 50°30' W 126°25'615.0
2018-May-25 00:59N 50°30' W 126°35'713.2
2018-May-25 00:29N 50°35' W 126°42'714.2
2018-May-25 00:00N 50°39' W 126°50'714.9
2018-May-24 23:30N 50°44' W 126°59'714.4
2018-May-24 23:00N 50°49' W 127°08'714.6
2018-May-24 22:30N 50°52' W 127°18'714.7
2018-May-24 22:00N 50°57' W 127°27'714.2
2018-May-24 21:30N 51°01' W 127°36'714.5
2018-May-24 21:00N 51°06' W 127°45'815.7
2018-May-24 20:30N 51°12' W 127°52'817.0
2018-May-24 20:00N 51°21' W 127°53'917.2
2018-May-24 19:30N 51°29' W 127°52'917.2
2018-May-24 19:00N 51°38' W 127°55'917.1
2018-May-24 18:30N 51°46' W 127°55'816.8
2018-May-24 18:00N 51°55' W 127°56'816.8
2018-May-24 17:31N 52°03' W 127°56'815.1
2018-May-24 17:00N 52°06' W 128°07'6 9.3
2018-May-24 16:25N 52°11' W 128°06'614.4
2018-May-24 16:00N 52°14' W 128°15'816.1
2018-May-24 15:30N 52°17' W 128°27'815.0
2018-May-24 15:00N 52°24' W 128°30'815.7
2018-May-24 14:30N 52°32' W 128°28'8515.2
2018-May-24 08:53N 53°42' W 129°48'817.7
2018-May-24 08:27N 53°48' W 129°57'817.1
2018-May-24 08:00N 53°53' W 130°06'815.5
2018-May-24 07:30N 53°60' W 130°13'816.4
2018-May-24 07:00N 54°06' W 130°22'816.5
2018-May-24 06:30N 54°13' W 130°30'816.1
2018-May-24 06:00N 54°20' W 130°36'816.5
2018-May-24 05:30N 54°28' W 130°38'816.7
2018-May-24 05:00N 54°36' W 130°41'816.4
2018-May-24 04:30N 54°42' W 130°51'815.2
2018-May-24 04:00N 54°48' W 130°59'  
2018-May-20 12:00N 54°53' W 131°02'714.7
2018-May-20 11:30N 54°46' W 130°56'815.0
2018-May-20 11:00N 54°40' W 130°48'713.9
2018-May-20 10:30N 54°34' W 130°44'714.3
2018-May-20 10:00N 54°27' W 130°39'714.5
2018-May-20 09:31N 54°20' W 130°36'714.1
2018-May-20 09:00N 54°14' W 130°30'714.5
2018-May-20 08:30N 54°08' W 130°23'612.7
2018-May-20 08:00N 54°03' W 130°16'817.1
2018-May-20 07:31N 53°55' W 130°11'816.3
2018-May-20 07:00N 53°50' W 130°01'816.4
2018-May-20 06:30N 53°44' W 129°51'8214.1
2018-May-20 00:41N 52°38' W 128°30'315.0
2018-May-20 00:29N 52°35' W 128°29'715.4
2018-May-20 00:00N 52°28' W 128°27'814.9
2018-May-19 23:30N 52°21' W 128°31'814.9
2018-May-19 23:00N 52°15' W 128°22'714.9
2018-May-19 22:31N 52°16' W 128°11'914.6
2018-May-19 21:56N 52°18' W 127°57'715.9
2018-May-19 21:30N 52°12' W 127°53'815.5
2018-May-19 21:00N 52°04' W 127°54'816.5
2018-May-19 20:30N 51°56' W 127°56'816.5
2018-May-19 20:00N 51°48' W 127°56'816.2
2018-May-19 19:30N 51°40' W 127°54'816.4
2018-May-19 19:00N 51°32' W 127°52'816.5
2018-May-19 18:30N 51°23' W 127°52'816.5
2018-May-19 18:00N 51°15' W 127°53'816.3
2018-May-19 17:30N 51°08' W 127°47'816.4
2018-May-19 17:00N 51°02' W 127°38'815.7
2018-May-19 16:30N 50°57' W 127°28'816.6
2018-May-19 16:00N 50°52' W 127°17'816.4
2018-May-19 15:30N 50°48' W 127°06'816.6
2018-May-19 15:00N 50°43' W 126°56'916.4
2018-May-19 14:29N 50°37' W 126°46'715.0
2018-May-19 14:00N 50°31' W 126°39'1016.1
2018-May-19 13:23N 50°30' W 126°23'1715.8
2018-May-19 12:16N 50°25' W 125°57'1714.6
2018-May-19 11:06N 50°21' W 125°31'315.7
2018-May-19 10:56N 50°20' W 125°27'715.4
2018-May-19 10:30N 50°14' W 125°23'815.8
2018-May-19 10:00N 50°07' W 125°19'816.5
2018-May-19 09:30N 49°60' W 125°12'918.8
2018-May-19 09:00N 49°53' W 125°02'917.3
2018-May-19 08:30N 49°47' W 124°53'816.5
2018-May-19 08:00N 49°41' W 124°44'816.5
2018-May-19 07:30N 49°35' W 124°34'816.4
2018-May-19 07:00N 49°29' W 124°25'816.0
2018-May-19 06:30N 49°25' W 124°15'816.4
2018-May-19 06:00N 49°23' W 124°03'816.5
2018-May-19 05:30N 49°21' W 123°51'816.0
2018-May-19 04:59N 49°16' W 123°40'916.4
2018-May-19 04:26N 49°10' W 123°30'716.4
2018-May-19 04:00N 49°05' W 123°22'917.2
2018-May-19 03:29N 48°59' W 123°13'817.7
2018-May-19 03:00N 48°53' W 123°03'1118.4
2018-May-19 02:25N 48°47' W 122°50'818.7
2018-May-19 02:00N 48°41' W 122°42'612.0
2018-May-19 01:30N 48°40' W 122°33'4 4.5
2018-May-19 00:42N 48°43' W 122°31'0 0.0
2018-May-19 00:30N 48°43' W 122°31'0 0.0
2018-May-19 00:00N 48°43' W 122°31'0 0.0
2018-May-18 23:30N 48°43' W 122°31'0 0.0
2018-May-18 22:54N 48°43' W 122°31'0 0.0
2018-May-18 22:24N 48°43' W 122°31'0 0.0
2018-May-18 21:48N 48°43' W 122°31'0 0.0
2018-May-18 21:30N 48°43' W 122°31'0 0.0
2018-May-18 20:00N 48°43' W 122°31'0 0.0
2018-May-18 19:30N 48°43' W 122°31'0 0.0
2018-May-18 18:54N 48°43' W 122°31'0 0.0
2018-May-18 18:30N 48°43' W 122°31'0 0.0
2018-May-18 14:44N 48°43' W 122°31'0 0.8
2018-May-18 14:30N 48°44' W 122°31'4 8.5
2018-May-18 14:00N 48°40' W 122°34'510.7
2018-May-18 13:30N 48°40' W 122°42'814.5
2018-May-18 12:59N 48°46' W 122°49'815.1
2018-May-18 12:28N 48°50' W 122°59'715.1
2018-May-18 12:00N 48°54' W 123°08'715.0
2018-May-18 11:30N 48°59' W 123°17'815.1
2018-May-18 11:00N 49°04' W 123°25'815.1
2018-May-18 10:29N 49°10' W 123°33'815.1
2018-May-18 09:56N 49°16' W 123°41'715.0
2018-May-18 09:27N 49°21' W 123°49'715.0
2018-May-18 09:00N 49°23' W 123°59'815.1
2018-May-18 08:30N 49°24' W 124°10'714.8
2018-May-18 08:00N 49°27' W 124°21'815.0
2018-May-18 07:29N 49°32' W 124°29'715.1
2018-May-18 07:00N 49°38' W 124°37'815.1
2018-May-18 06:31N 49°43' W 124°45'815.8
2018-May-18 06:00N 49°48' W 124°54'816.7
2018-May-18 05:30N 49°54' W 125°03'815.9
2018-May-18 05:00N 49°60' W 125°12'5 9.4
2018-May-18 04:30N 50°04' W 125°15'510.9
2018-May-18 04:00N 50°08' W 125°21'815.8
2018-May-18 03:29N 50°16' W 125°24'713.3
2018-May-18 02:59N 50°21' W 125°31'714.9
2018-May-18 02:29N 50°22' W 125°42'1715.6
2018-May-18 01:23N 50°28' W 126°08'716.1
2018-May-18 00:58N 50°29' W 126°18'716.1
2018-May-18 00:31N 50°30' W 126°29'815.1
2018-May-17 23:58N 50°33' W 126°41'1016.5
2018-May-17 23:20N 50°41' W 126°53'616.5
2018-May-17 23:00N 50°44' W 126°59'816.5
2018-May-17 22:30N 50°49' W 127°10'816.5
2018-May-17 22:01N 50°53' W 127°21'816.6
2018-May-17 21:30N 50°58' W 127°32'815.9
2018-May-17 21:00N 51°04' W 127°41'816.4
2018-May-17 20:30N 51°10' W 127°50'916.6
2018-May-17 19:59N 51°18' W 127°54'713.7
2018-May-17 19:30N 51°24' W 127°54'815.7
2018-May-17 19:00N 51°32' W 127°53'816.5
2018-May-17 18:30N 51°40' W 127°54'816.6
2018-May-17 18:01N 51°49' W 127°55'816.6
2018-May-17 17:31N 51°57' W 127°56'815.0
2018-May-17 17:00N 52°04' W 127°58'714.0
2018-May-17 16:30N 52°08' W 128°08'4 6.9
2018-May-17 15:59N 52°11' W 128°06'815.8
2018-May-17 15:30N 52°15' W 128°17'815.5
2018-May-17 15:00N 52°18' W 128°29'714.7
2018-May-17 14:30N 52°25' W 128°29'816.4
2018-May-17 14:00N 52°33' W 128°28'1016.6
2018-May-17 13:25N 52°43' W 128°34'7415.1
2018-May-17 08:31N 53°42' W 129°48'016.7
2018-May-17 08:30N 53°42' W 129°48'917.4
2018-May-17 08:00N 53°48' W 129°58'917.5
2018-May-17 07:30N 53°54' W 130°09'816.4
2018-May-17 07:00N 54°02' W 130°14'817.1
2018-May-17 06:30N 54°08' W 130°24'917.1
2018-May-17 06:00N 54°15' W 130°32'917.2
2018-May-17 05:30N 54°23' W 130°38'917.2
2018-May-17 05:00N 54°32' W 130°42'916.6
2018-May-17 04:29N 54°40' W 130°47'816.9
2018-May-17 04:00N 54°46' W 130°56'  
Track history (hours):
 
Tides and Currents Weather Stations Pressure Air Temp Water Temp Dewpoint Dewpoint Depression Visibility Wind Speed Wind Dir Waves Ship Positions

Columbia

Owner: ALASKA, STATE OF, ANCHORAGE, AK. More information available from US FCC via Universal Licensing System and Coast Guard Vessel Documentation Center.

Last reported at 2018-May-26 12:20 UTC. Time now 2018-May-26 13:51 UTC.
Position N 50°23' W 125°47'.

Type: Ship. MMSI: 367144000.

Date/timePositionNaut miles runAvg speedWind from/ knotsBaromVisibWave heightAir tempDewpointWater temp
2018-May-26 12:20N 50°23' W 125°47'1016.1
2018-May-26 11:44N 50°21' W 125°32'416.6
2018-May-26 11:31N 50°20' W 125°26'917.2
2018-May-26 11:00N 50°12' W 125°22'815.7
2018-May-26 10:30N 50°05' W 125°16'611.7
2018-May-26 10:00N 49°60' W 125°12'815.1
2018-May-26 09:30N 49°54' W 125°04'815.9
2018-May-26 09:00N 49°49' W 124°56'815.9
2018-May-26 08:30N 49°43' W 124°47'815.9
2018-May-26 08:00N 49°38' W 124°38'815.9
2018-May-26 07:30N 49°32' W 124°29'815.9
2018-May-26 07:00N 49°27' W 124°20'815.7
2018-May-26 06:30N 49°24' W 124°09'1915.6
2018-May-26 05:18N 49°17' W 123°42'515.9
2018-May-26 04:58N 49°13' W 123°36'815.9
2018-May-26 04:27N 49°08' W 123°27'716.0
2018-May-26 04:00N 49°03' W 123°19'816.4
2018-May-26 03:30N 48°57' W 123°10'916.4
2018-May-26 02:59N 48°52' W 122°60'816.4
2018-May-26 02:30N 48°47' W 122°50'715.2
2018-May-26 02:01N 48°41' W 122°43'612.7
2018-May-26 01:31N 48°39' W 122°34'5 0.6
2018-May-25 17:40N 48°43' W 122°31'0 0.0
2018-May-25 17:16N 48°43' W 122°31'0 0.0
2018-May-25 16:46N 48°43' W 122°31'0 0.0
2018-May-25 16:28N 48°43' W 122°31'0 0.0
2018-May-25 15:58N 48°43' W 122°31'0 0.0
2018-May-25 15:27N 48°43' W 122°31'0 0.0
2018-May-25 14:56N 48°43' W 122°31'0 1.0
2018-May-25 14:28N 48°44' W 122°31'613.3
2018-May-25 14:00N 48°38' W 122°35'714.1
2018-May-25 13:30N 48°41' W 122°44'714.9
2018-May-25 13:00N 48°47' W 122°52'816.1
2018-May-25 12:29N 48°51' W 123°03'816.3
2018-May-25 12:00N 48°56' W 123°12'816.3
2018-May-25 11:30N 49°02' W 123°21'916.3
2018-May-25 10:57N 49°09' W 123°30'816.3
2018-May-25 10:29N 49°14' W 123°38'816.3
2018-May-25 10:00N 49°19' W 123°47'815.8
2018-May-25 09:30N 49°23' W 123°58'816.3
2018-May-25 09:00N 49°24' W 124°10'816.0
2018-May-25 08:29N 49°27' W 124°22'816.2
2018-May-25 08:00N 49°33' W 124°31'816.2
2018-May-25 07:30N 49°38' W 124°40'816.3
2018-May-25 07:00N 49°44' W 124°49'816.3
2018-May-25 06:30N 49°50' W 124°57'816.1
2018-May-25 06:00N 49°56' W 125°06'612.8
2018-May-25 05:30N 50°01' W 125°13'815.5
2018-May-25 05:01N 50°07' W 125°19'815.7
2018-May-25 04:30N 50°15' W 125°23'1712.5
2018-May-25 03:09N 50°22' W 125°47'2614.6
2018-May-25 01:23N 50°30' W 126°25'615.0
2018-May-25 00:59N 50°30' W 126°35'713.2
2018-May-25 00:29N 50°35' W 126°42'714.2
2018-May-25 00:00N 50°39' W 126°50'714.9
2018-May-24 23:30N 50°44' W 126°59'714.4
2018-May-24 23:00N 50°49' W 127°08'714.6
2018-May-24 22:30N 50°52' W 127°18'714.7
2018-May-24 22:00N 50°57' W 127°27'714.2
2018-May-24 21:30N 51°01' W 127°36'714.5
2018-May-24 21:00N 51°06' W 127°45'815.7
2018-May-24 20:30N 51°12' W 127°52'817.0
2018-May-24 20:00N 51°21' W 127°53'917.2
2018-May-24 19:30N 51°29' W 127°52'917.2
2018-May-24 19:00N 51°38' W 127°55'917.1
2018-May-24 18:30N 51°46' W 127°55'816.8
2018-May-24 18:00N 51°55' W 127°56'816.8
2018-May-24 17:31N 52°03' W 127°56'815.1
2018-May-24 17:00N 52°06' W 128°07'6 9.3
2018-May-24 16:25N 52°11' W 128°06'614.4
2018-May-24 16:00N 52°14' W 128°15'816.1
2018-May-24 15:30N 52°17' W 128°27'815.0
2018-May-24 15:00N 52°24' W 128°30'815.7
2018-May-24 14:30N 52°32' W 128°28'8515.2
2018-May-24 08:53N 53°42' W 129°48'817.7
2018-May-24 08:27N 53°48' W 129°57'817.1
2018-May-24 08:00N 53°53' W 130°06'815.5
2018-May-24 07:30N 53°60' W 130°13'816.4
2018-May-24 07:00N 54°06' W 130°22'816.5
2018-May-24 06:30N 54°13' W 130°30'816.1
2018-May-24 06:00N 54°20' W 130°36'816.5
2018-May-24 05:30N 54°28' W 130°38'816.7
2018-May-24 05:00N 54°36' W 130°41'816.4
2018-May-24 04:30N 54°42' W 130°51'815.2
2018-May-24 04:00N 54°48' W 130°59'  
2018-May-20 12:00N 54°53' W 131°02'714.7
2018-May-20 11:30N 54°46' W 130°56'815.0
2018-May-20 11:00N 54°40' W 130°48'713.9
2018-May-20 10:30N 54°34' W 130°44'714.3
2018-May-20 10:00N 54°27' W 130°39'714.5
2018-May-20 09:31N 54°20' W 130°36'714.1
2018-May-20 09:00N 54°14' W 130°30'714.5
2018-May-20 08:30N 54°08' W 130°23'612.7
2018-May-20 08:00N 54°03' W 130°16'817.1
2018-May-20 07:31N 53°55' W 130°11'816.3
2018-May-20 07:00N 53°50' W 130°01'816.4
2018-May-20 06:30N 53°44' W 129°51'8214.1
2018-May-20 00:41N 52°38' W 128°30'315.0
2018-May-20 00:29N 52°35' W 128°29'715.4
2018-May-20 00:00N 52°28' W 128°27'814.9
2018-May-19 23:30N 52°21' W 128°31'814.9
2018-May-19 23:00N 52°15' W 128°22'714.9
2018-May-19 22:31N 52°16' W 128°11'914.6
2018-May-19 21:56N 52°18' W 127°57'715.9
2018-May-19 21:30N 52°12' W 127°53'815.5
2018-May-19 21:00N 52°04' W 127°54'816.5
2018-May-19 20:30N 51°56' W 127°56'816.5
2018-May-19 20:00N 51°48' W 127°56'816.2
2018-May-19 19:30N 51°40' W 127°54'816.4
2018-May-19 19:00N 51°32' W 127°52'816.5
2018-May-19 18:30N 51°23' W 127°52'816.5
2018-May-19 18:00N 51°15' W 127°53'816.3
2018-May-19 17:30N 51°08' W 127°47'816.4
2018-May-19 17:00N 51°02' W 127°38'815.7
2018-May-19 16:30N 50°57' W 127°28'816.6
2018-May-19 16:00N 50°52' W 127°17'816.4
2018-May-19 15:30N 50°48' W 127°06'816.6
2018-May-19 15:00N 50°43' W 126°56'916.4
2018-May-19 14:29N 50°37' W 126°46'715.0
2018-May-19 14:00N 50°31' W 126°39'1016.1
2018-May-19 13:23N 50°30' W 126°23'1715.8
2018-May-19 12:16N 50°25' W 125°57'1714.6
2018-May-19 11:06N 50°21' W 125°31'315.7
2018-May-19 10:56N 50°20' W 125°27'715.4
2018-May-19 10:30N 50°14' W 125°23'815.8
2018-May-19 10:00N 50°07' W 125°19'816.5
2018-May-19 09:30N 49°60' W 125°12'918.8
2018-May-19 09:00N 49°53' W 125°02'917.3
2018-May-19 08:30N 49°47' W 124°53'816.5
2018-May-19 08:00N 49°41' W 124°44'816.5
2018-May-19 07:30N 49°35' W 124°34'816.4
2018-May-19 07:00N 49°29' W 124°25'816.0
2018-May-19 06:30N 49°25' W 124°15'816.4
2018-May-19 06:00N 49°23' W 124°03'816.5
2018-May-19 05:30N 49°21' W 123°51'816.0
2018-May-19 04:59N 49°16' W 123°40'916.4
2018-May-19 04:26N 49°10' W 123°30'716.4
2018-May-19 04:00N 49°05' W 123°22'917.2
2018-May-19 03:29N 48°59' W 123°13'817.7
2018-May-19 03:00N 48°53' W 123°03'1118.4
2018-May-19 02:25N 48°47' W 122°50'818.7
2018-May-19 02:00N 48°41' W 122°42'612.0
2018-May-19 01:30N 48°40' W 122°33'4 4.5
2018-May-19 00:42N 48°43' W 122°31'0 0.0
2018-May-19 00:30N 48°43' W 122°31'0 0.0
2018-May-19 00:00N 48°43' W 122°31'0 0.0
2018-May-18 23:30N 48°43' W 122°31'0 0.0
2018-May-18 22:54N 48°43' W 122°31'0 0.0
2018-May-18 22:24N 48°43' W 122°31'0 0.0
2018-May-18 21:48N 48°43' W 122°31'0 0.0
2018-May-18 21:30N 48°43' W 122°31'0 0.0
2018-May-18 20:00N 48°43' W 122°31'0 0.0
2018-May-18 19:30N 48°43' W 122°31'0 0.0
2018-May-18 18:54N 48°43' W 122°31'0 0.0
2018-May-18 18:30N 48°43' W 122°31'0 0.0
2018-May-18 14:44N 48°43' W 122°31'0 0.8
2018-May-18 14:30N 48°44' W 122°31'4 8.5
2018-May-18 14:00N 48°40' W 122°34'510.7
2018-May-18 13:30N 48°40' W 122°42'814.5
2018-May-18 12:59N 48°46' W 122°49'815.1
2018-May-18 12:28N 48°50' W 122°59'715.1
2018-May-18 12:00N 48°54' W 123°08'715.0
2018-May-18 11:30N 48°59' W 123°17'815.1
2018-May-18 11:00N 49°04' W 123°25'815.1
2018-May-18 10:29N 49°10' W 123°33'815.1
2018-May-18 09:56N 49°16' W 123°41'715.0
2018-May-18 09:27N 49°21' W 123°49'715.0
2018-May-18 09:00N 49°23' W 123°59'815.1
2018-May-18 08:30N 49°24' W 124°10'714.8
2018-May-18 08:00N 49°27' W 124°21'815.0
2018-May-18 07:29N 49°32' W 124°29'715.1
2018-May-18 07:00N 49°38' W 124°37'815.1
2018-May-18 06:31N 49°43' W 124°45'815.8
2018-May-18 06:00N 49°48' W 124°54'816.7
2018-May-18 05:30N 49°54' W 125°03'815.9
2018-May-18 05:00N 49°60' W 125°12'5 9.4
2018-May-18 04:30N 50°04' W 125°15'510.9
2018-May-18 04:00N 50°08' W 125°21'815.8
2018-May-18 03:29N 50°16' W 125°24'713.3
2018-May-18 02:59N 50°21' W 125°31'714.9
2018-May-18 02:29N 50°22' W 125°42'1715.6
2018-May-18 01:23N 50°28' W 126°08'716.1
2018-May-18 00:58N 50°29' W 126°18'716.1
2018-May-18 00:31N 50°30' W 126°29'815.1
2018-May-17 23:58N 50°33' W 126°41'1016.5
2018-May-17 23:20N 50°41' W 126°53'616.5
2018-May-17 23:00N 50°44' W 126°59'816.5
2018-May-17 22:30N 50°49' W 127°10'816.5
2018-May-17 22:01N 50°53' W 127°21'816.6
2018-May-17 21:30N 50°58' W 127°32'815.9
2018-May-17 21:00N 51°04' W 127°41'816.4
2018-May-17 20:30N 51°10' W 127°50'916.6
2018-May-17 19:59N 51°18' W 127°54'713.7
2018-May-17 19:30N 51°24' W 127°54'815.7
2018-May-17 19:00N 51°32' W 127°53'816.5
2018-May-17 18:30N 51°40' W 127°54'816.6
2018-May-17 18:01N 51°49' W 127°55'816.6
2018-May-17 17:31N 51°57' W 127°56'815.0
2018-May-17 17:00N 52°04' W 127°58'714.0
2018-May-17 16:30N 52°08' W 128°08'4 6.9
2018-May-17 15:59N 52°11' W 128°06'815.8
2018-May-17 15:30N 52°15' W 128°17'815.5
2018-May-17 15:00N 52°18' W 128°29'714.7
2018-May-17 14:30N 52°25' W 128°29'816.4
2018-May-17 14:00N 52°33' W 128°28'1016.6
2018-May-17 13:25N 52°43' W 128°34'7415.1
2018-May-17 08:31N 53°42' W 129°48'016.7
2018-May-17 08:30N 53°42' W 129°48'917.4
2018-May-17 08:00N 53°48' W 129°58'917.5
2018-May-17 07:30N 53°54' W 130°09'816.4
2018-May-17 07:00N 54°02' W 130°14'817.1
2018-May-17 06:30N 54°08' W 130°24'917.1
2018-May-17 06:00N 54°15' W 130°32'917.2
2018-May-17 05:30N 54°23' W 130°38'917.2
2018-May-17 05:00N 54°32' W 130°42'916.6
2018-May-17 04:29N 54°40' W 130°47'816.9
2018-May-17 04:00N 54°46' W 130°56'  

Dump ship's entire track history